Terminal Aerodrome Forecast
Issued by NWS

Home | Current Version | Previous Version | Text Only | Print | Product List | Glossary On
Versions: 1 2 3 4 5 6 7 8 9 10 11 12 13
000
FTUS42 TJSJ 252339
TAFKPK
TAF
TKPK 252339Z 2600/2624 05007KT P6SM VCSH SCT018 SCT035
     FM260400 07008KT P6SM SCT028 BKN040
     FM261400 09011KT P6SM VCSH SCT020
      AMD NOT SKED 2602/2611=

USA.gov is the U.S. government's official web portal to all federal, state and local government web resources and services.